Hunstanton, United Kingdom
Current Conditions -  °F | °C
As of 10:50 PM on Thursday 18 Dec 2014 (Local Time) from EGYM Reporting Station
Broken Clouds Broken Clouds  
Wind Chill: 55°   Ceiling: 1500
Heat Index: 55°   Visibility: 6mi
Dew Point: 50°   Wind: 24mph
Humidity: 82%   Direction: 220°SW
Pressure: 29.71"   Gusts: NA
Location:  52.94°N, 0.49°E
Report Text: EGYM 182250Z AUTO 22021KT 9999 BKN015/// SCT029/// BKN070/// 13/10 Q1006
Loading
Personal Weather Stations






























Interactive Weather Map New forecast layout! Learn more

10-Day Weather Forecast

Advertisements
Track Severe Weather on mobile